Time;durP1;ratioP1;P1;durP2;ratioP2;P2;SDS_P1;SDS_P2;PMS_P1;PMS_P2;Temp;Humidity;BMP_temperature;BMP_pressure;BME280_temperature;BME280_humidity;BME280_pressure;Samples;Min_cycle;Max_cycle;Signal;HPM_P1;HPM_P2
2022/12/23 00:01:24;;;;;;;21.03;11.53;;;9.00;99.90;;;;;;5095176;28;20172;-68
2022/12/23 00:03:51;;;;;;;27.87;11.43;;;9.00;99.90;;;;;;5094962;28;20283;-68
2022/12/23 00:06:18;;;;;;;23.90;11.50;;;8.90;99.90;;;;;;5076677;28;20183;-68
2022/12/23 00:08:45;;;;;;;21.87;10.90;;;9.00;99.90;;;;;;5095305;28;20169;-68
2022/12/23 00:11:14;;;;;;;26.53;12.10;;;9.00;99.90;;;;;;5095077;28;20637;-68
2022/12/23 00:16:25;;;;;;;23.07;11.37;;;9.00;99.90;;;;;;5095216;28;20168;-68
2022/12/23 00:18:52;;;;;;;33.30;11.87;;;9.00;99.90;;;;;;5076406;28;20205;-68
2022/12/23 00:21:19;;;;;;;25.37;11.87;;;9.00;99.90;;;;;;5076509;28;20173;-68
2022/12/23 00:23:48;;;;;;;21.77;11.07;;;9.00;99.90;;;;;;5094733;28;20238;-68
2022/12/23 00:26:19;;;;;;;31.50;11.53;;;9.00;99.90;;;;;;5094878;28;20298;-68
2022/12/23 00:28:45;;;;;;;20.37;10.90;;;9.00;99.90;;;;;;5094560;28;20189;-68
2022/12/23 00:31:11;;;;;;;21.73;11.77;;;9.00;99.90;;;;;;5094695;28;20176;-68
2022/12/23 00:33:40;;;;;;;22.37;10.57;;;9.00;99.90;;;;;;5076374;28;20199;-68
2022/12/23 00:36:19;;;;;;;28.30;11.87;;;9.10;99.90;;;;;;5094616;28;20223;-68
2022/12/23 00:44:14;;;;;;;22.30;11.67;;;9.10;99.90;;;;;;5094406;28;20327;-68
2022/12/23 00:46:39;;;;;;;25.23;11.47;;;9.10;99.90;;;;;;5075984;28;20173;-68
2022/12/23 00:51:50;;;;;;;19.37;10.47;;;9.10;99.90;;;;;;5094746;28;20168;-68
2022/12/23 00:54:16;;;;;;;24.93;11.77;;;9.10;99.90;;;;;;5094142;28;20201;-68
2022/12/23 00:56:42;;;;;;;27.23;12.53;;;9.10;99.90;;;;;;5076138;28;20188;-68
2022/12/23 00:59:07;;;;;;;28.20;13.10;;;9.10;99.90;;;;;;5075977;28;20231;-68
2022/12/23 01:07:04;;;;;;;24.43;12.33;;;9.10;99.90;;;;;;5094545;28;20517;-68
2022/12/23 01:09:29;;;;;;;22.37;11.23;;;9.20;99.90;;;;;;5075923;28;20724;-68
2022/12/23 01:11:56;;;;;;;24.63;11.97;;;9.20;99.90;;;;;;5075585;28;20226;-69
2022/12/23 01:14:22;;;;;;;24.27;11.77;;;9.20;99.90;;;;;;5076236;28;20204;-68
2022/12/23 01:16:48;;;;;;;26.77;12.03;;;9.20;99.90;;;;;;5076180;28;20619;-68
2022/12/23 01:19:14;;;;;;;25.43;11.80;;;9.20;99.90;;;;;;5094174;28;20276;-68
2022/12/23 01:21:39;;;;;;;19.73;11.97;;;9.20;99.90;;;;;;5094348;28;20187;-68
2022/12/23 01:24:05;;;;;;;18.30;11.20;;;9.20;99.90;;;;;;5075558;28;20232;-68
2022/12/23 01:26:31;;;;;;;21.03;11.50;;;9.20;99.90;;;;;;5094011;28;20184;-69
2022/12/23 01:28:58;;;;;;;26.83;11.93;;;9.20;99.90;;;;;;5093949;28;20177;-68
2022/12/23 01:31:25;;;;;;;27.10;12.53;;;9.20;99.90;;;;;;5075457;28;20177;-68
2022/12/23 01:33:52;;;;;;;25.50;11.17;;;9.20;99.90;;;;;;5093544;28;20193;-68
2022/12/23 01:36:19;;;;;;;23.00;10.90;;;9.20;99.90;;;;;;5093741;28;20199;-68
2022/12/23 01:38:45;;;;;;;22.03;11.50;;;9.20;99.90;;;;;;5093685;28;20215;-69
2022/12/23 01:44:46;;;;;;;17.80;10.87;;;9.20;99.90;;;;;;5094219;28;20196;-69
2022/12/23 01:47:32;;;;;;;21.60;12.10;;;9.20;99.90;;;;;;5075458;28;20180;-69
2022/12/23 01:50:20;;;;;;;18.37;10.90;;;9.20;99.90;;;;;;5082423;28;20185;-69
2022/12/23 01:53:06;;;;;;;17.83;11.93;;;9.20;99.90;;;;;;5063058;28;20192;-68
2022/12/23 01:55:54;;;;;;;16.97;11.37;;;9.20;99.90;;;;;;5093104;28;20208;-69
2022/12/23 01:58:28;;;;;;;24.00;12.33;;;9.20;99.90;;;;;;5082394;28;20637;-68
2022/12/23 02:03:41;;;;;;;20.13;11.53;;;9.20;99.90;;;;;;5093168;28;20192;-68
2022/12/23 02:09:16;;;;;;;24.73;12.43;;;9.20;99.90;;;;;;5093250;28;20168;-68
2022/12/23 02:12:10;;;;;;;17.03;11.87;;;9.20;99.90;;;;;;5093326;28;20184;-69
2022/12/23 02:18:07;;;;;;;23.20;12.87;;;9.20;99.90;;;;;;5093197;28;20187;-69
2022/12/23 02:20:44;;;;;;;19.40;11.67;;;9.20;99.90;;;;;;5093278;28;20162;-69
2022/12/23 02:23:27;;;;;;;23.67;12.30;;;9.20;99.90;;;;;;5093048;28;20218;-69
2022/12/23 02:26:08;;;;;;;23.07;11.33;;;9.20;99.90;;;;;;5096795;28;20161;-69
2022/12/23 02:28:59;;;;;;;20.80;13.03;;;9.20;99.90;;;;;;5078447;28;20193;-69
2022/12/23 02:31:46;;;;;;;21.80;13.17;;;9.20;99.90;;;;;;5096581;28;20256;-69
2022/12/23 02:34:18;;;;;;;21.67;14.10;;;9.20;99.90;;;;;;5078397;28;20284;-68
2022/12/23 02:37:15;;;;;;;20.60;13.13;;;9.20;99.90;;;;;;5096502;28;20185;-69
2022/12/23 02:39:55;;;;;;;18.43;12.87;;;9.30;99.90;;;;;;5092134;28;20217;-68
2022/12/23 02:42:27;;;;;;;21.07;13.43;;;9.20;99.90;;;;;;5097054;28;20585;-68
2022/12/23 02:45:03;;;;;;;25.83;13.97;;;9.20;99.90;;;;;;5078227;28;20386;-69
2022/12/23 02:47:43;;;;;;;22.83;14.17;;;9.20;99.90;;;;;;5078220;28;20168;-69
2022/12/23 02:50:22;;;;;;;27.83;14.70;;;9.20;99.90;;;;;;5077999;28;20193;-68
2022/12/23 02:52:50;;;;;;;25.67;14.90;;;9.20;99.90;;;;;;5078111;28;20173;-68
2022/12/23 02:55:24;;;;;;;31.00;15.50;;;9.20;99.90;;;;;;5096165;28;20216;-69
2022/12/23 02:57:53;;;;;;;26.83;15.50;;;9.20;99.90;;;;;;5078284;28;20196;-69
2022/12/23 03:00:21;;;;;;;27.83;17.17;;;9.20;99.90;;;;;;5096114;28;20196;-68
2022/12/23 03:02:47;;;;;;;29.10;17.30;;;9.20;99.90;;;;;;5096272;28;20173;-68
2022/12/23 03:05:28;;;;;;;27.03;17.97;;;9.20;99.90;;;;;;5077834;28;20269;-68
2022/12/23 03:08:01;;;;;;;27.70;16.53;;;9.30;99.90;;;;;;5096221;28;20185;-68
2022/12/23 03:10:54;;;;;;;30.47;17.70;;;9.30;99.90;;;;;;5095973;28;20554;-68
2022/12/23 03:13:34;;;;;;;27.30;16.80;;;9.30;99.90;;;;;;5077960;28;20646;-68
2022/12/23 03:16:23;;;;;;;26.87;16.43;;;9.30;99.90;;;;;;5096175;28;20154;-68
2022/12/23 03:18:55;;;;;;;30.97;15.43;;;9.30;99.90;;;;;;5077772;28;20201;-68
2022/12/23 03:21:29;;;;;;;30.33;17.10;;;9.30;99.90;;;;;;5096004;28;20165;-68
2022/12/23 03:24:06;;;;;;;26.23;16.73;;;9.30;99.90;;;;;;5077696;28;20563;-68
2022/12/23 03:26:44;;;;;;;28.97;16.10;;;9.30;99.90;;;;;;5095853;28;20149;-69
2022/12/23 03:29:38;;;;;;;28.67;16.37;;;9.30;99.90;;;;;;5095847;28;20173;-68
2022/12/23 03:32:05;;;;;;;29.87;15.93;;;9.30;99.90;;;;;;5095708;28;20161;-68
2022/12/23 03:34:36;;;;;;;30.63;17.00;;;9.30;99.90;;;;;;5095124;28;20193;-68
2022/12/23 03:37:06;;;;;;;28.83;16.90;;;9.30;99.90;;;;;;5077367;28;20169;-68
2022/12/23 03:39:35;;;;;;;24.90;16.57;;;9.30;99.90;;;;;;5095313;28;20196;-68
2022/12/23 03:42:11;;;;;;;28.97;17.10;;;9.30;99.90;;;;;;5077090;28;20724;-68
2022/12/23 03:44:42;;;;;;;29.37;17.20;;;9.30;99.90;;;;;;5095438;28;20212;-68
2022/12/23 03:47:13;;;;;;;27.93;16.57;;;9.30;99.90;;;;;;5095408;28;20158;-68
2022/12/23 03:49:51;;;;;;;28.40;18.60;;;9.30;99.90;;;;;;5095463;28;20543;-68
2022/12/23 03:52:21;;;;;;;25.63;16.77;;;9.30;99.90;;;;;;5095598;28;20194;-68
2022/12/23 03:55:04;;;;;;;25.50;16.40;;;9.30;99.90;;;;;;5095211;28;20196;-68
2022/12/23 03:58:08;;;;;;;23.97;16.77;;;9.30;99.90;;;;;;5095079;28;20181;-68
2022/12/23 04:00:38;;;;;;;32.30;19.13;;;9.30;99.90;;;;;;5094893;28;20280;-68
2022/12/23 04:03:21;;;;;;;29.57;18.67;;;9.30;99.90;;;;;;5095367;28;20180;-68
2022/12/23 04:05:55;;;;;;;34.13;19.07;;;9.20;99.90;;;;;;5076937;28;20173;-68
2022/12/23 04:08:29;;;;;;;29.73;18.97;;;9.20;99.90;;;;;;5095022;28;20149;-68
2022/12/23 04:10:56;;;;;;;34.07;19.17;;;9.20;99.90;;;;;;5095095;28;20173;-68
2022/12/23 04:13:21;;;;;;;33.30;17.47;;;9.20;99.90;;;;;;5094975;28;20204;-68
2022/12/23 04:15:47;;;;;;;33.47;19.40;;;9.20;99.90;;;;;;5095016;28;20201;-68
2022/12/23 04:18:15;;;;;;;30.47;17.57;;;9.20;99.90;;;;;;5095008;28;20173;-67
2022/12/23 04:20:40;;;;;;;33.70;17.13;;;9.20;99.90;;;;;;5094761;28;20629;-68
2022/12/23 04:23:06;;;;;;;32.73;17.43;;;9.30;99.90;;;;;;5095189;28;20226;-68
2022/12/23 04:25:32;;;;;;;32.57;18.57;;;9.30;99.90;;;;;;5095249;28;20196;-68
2022/12/23 04:27:58;;;;;;;32.13;18.73;;;9.30;99.90;;;;;;5094632;28;20189;-68
2022/12/23 04:30:24;;;;;;;30.47;17.93;;;9.30;99.90;;;;;;5094848;28;20177;-68
2022/12/23 04:32:49;;;;;;;32.50;18.97;;;9.30;99.90;;;;;;5076094;28;20192;-68
2022/12/23 04:35:15;;;;;;;31.43;17.77;;;9.30;99.90;;;;;;5094515;28;20722;-68
2022/12/23 04:37:41;;;;;;;36.07;18.00;;;9.30;99.90;;;;;;5076256;28;20201;-68
2022/12/23 04:40:07;;;;;;;29.53;16.30;;;9.30;99.90;;;;;;5076160;28;20240;-68
2022/12/23 04:42:33;;;;;;;32.97;18.10;;;9.30;99.90;;;;;;5094345;28;20173;-69
2022/12/23 04:44:59;;;;;;;33.03;17.83;;;9.30;99.90;;;;;;5076025;28;20241;-69
2022/12/23 04:47:25;;;;;;;24.53;17.23;;;9.30;99.90;;;;;;5093393;28;20177;-68
2022/12/23 04:49:51;;;;;;;32.83;19.10;;;9.30;99.90;;;;;;5094518;28;20166;-68
2022/12/23 04:52:17;;;;;;;33.27;18.37;;;9.30;99.90;;;;;;5094897;28;20217;-68
2022/12/23 04:54:43;;;;;;;36.07;17.50;;;9.30;99.90;;;;;;5094103;28;20572;-68
2022/12/23 04:57:09;;;;;;;34.43;18.90;;;9.30;99.90;;;;;;5094376;28;20226;-68
2022/12/23 04:59:35;;;;;;;34.23;17.60;;;9.30;99.90;;;;;;5075978;28;20744;-68
2022/12/23 05:02:00;;;;;;;35.53;18.77;;;9.20;99.90;;;;;;5076016;28;20177;-68
2022/12/23 05:04:26;;;;;;;35.67;19.10;;;9.20;99.90;;;;;;5075717;28;20661;-68
2022/12/23 05:06:52;;;;;;;36.27;18.47;;;9.20;99.90;;;;;;5094256;28;20166;-68
2022/12/23 05:09:18;;;;;;;32.87;16.97;;;9.20;99.90;;;;;;5094284;28;20173;-68
2022/12/23 05:11:43;;;;;;;38.10;19.73;;;9.20;99.90;;;;;;5076000;28;20191;-68
2022/12/23 05:14:10;;;;;;;39.37;19.87;;;9.20;99.90;;;;;;5094007;28;20296;-68
2022/12/23 05:16:36;;;;;;;31.47;18.83;;;9.20;99.90;;;;;;5094092;28;20634;-68
2022/12/23 05:19:02;;;;;;;29.83;17.13;;;9.20;99.90;;;;;;5094193;28;20201;-68
2022/12/23 05:21:28;;;;;;;31.93;17.77;;;9.20;99.90;;;;;;5096060;28;20172;-68
2022/12/23 05:23:54;;;;;;;28.43;16.53;;;9.20;99.90;;;;;;5096041;28;20193;-68
2022/12/23 05:26:21;;;;;;;36.10;17.43;;;9.20;99.90;;;;;;5096427;28;20169;-68
2022/12/23 05:28:46;;;;;;;26.93;16.00;;;9.20;99.90;;;;;;5094294;28;20192;-68
2022/12/23 05:31:13;;;;;;;30.23;16.57;;;9.20;99.90;;;;;;5094168;28;20238;-68
2022/12/23 05:33:38;;;;;;;26.73;16.43;;;9.10;99.90;;;;;;5075821;28;20230;-68
2022/12/23 05:36:05;;;;;;;33.93;14.90;;;9.10;99.90;;;;;;5094446;28;20176;-68
2022/12/23 05:38:31;;;;;;;32.67;15.77;;;9.10;99.90;;;;;;5093723;28;20299;-68
2022/12/23 05:40:57;;;;;;;30.23;14.27;;;9.10;99.90;;;;;;5094444;28;20578;-68
2022/12/23 05:43:22;;;;;;;25.83;15.80;;;9.10;99.90;;;;;;5093773;28;20165;-68
2022/12/23 05:45:49;;;;;;;28.37;14.37;;;9.10;99.90;;;;;;5093355;28;20533;-68
2022/12/23 05:48:15;;;;;;;23.00;15.03;;;9.10;99.90;;;;;;5094013;28;20169;-68
2022/12/23 05:50:41;;;;;;;26.50;14.83;;;9.10;99.90;;;;;;5093553;28;20226;-68
2022/12/23 05:53:07;;;;;;;25.20;14.33;;;9.10;99.90;;;;;;5093570;28;20576;-68
2022/12/23 05:55:34;;;;;;;26.30;13.83;;;9.10;99.90;;;;;;5093356;28;20189;-68
2022/12/23 05:57:59;;;;;;;26.00;13.97;;;9.10;99.90;;;;;;5094881;28;20225;-68
2022/12/23 06:00:25;;;;;;;23.63;14.73;;;9.10;99.90;;;;;;5097385;28;20284;-68
2022/12/23 06:02:51;;;;;;;26.57;14.50;;;9.10;99.90;;;;;;5097277;28;20176;-68
2022/12/23 06:05:17;;;;;;;25.63;14.10;;;9.10;99.90;;;;;;5097181;28;20200;-68
2022/12/23 06:07:42;;;;;;;31.13;15.23;;;9.10;99.90;;;;;;5097280;28;20173;-68
2022/12/23 06:10:09;;;;;;;35.47;14.93;;;9.10;99.90;;;;;;5097738;28;20298;-68
2022/12/23 06:12:36;;;;;;;28.73;15.37;;;9.10;99.90;;;;;;5097085;28;20176;-68
2022/12/23 06:15:01;;;;;;;29.13;15.60;;;9.10;99.90;;;;;;5097240;28;20200;-68
2022/12/23 06:17:27;;;;;;;35.37;15.90;;;9.10;99.90;;;;;;5096993;28;20645;-68
2022/12/23 06:19:53;;;;;;;26.53;13.30;;;9.10;99.90;;;;;;5097063;28;20197;-68
2022/12/23 06:22:22;;;;;;;29.57;15.93;;;9.10;99.90;;;;;;5078760;28;20227;-68
2022/12/23 06:24:49;;;;;;;28.73;14.87;;;9.10;99.90;;;;;;5096914;28;20189;-68
2022/12/23 06:27:15;;;;;;;29.00;14.13;;;9.00;99.90;;;;;;5096643;28;20185;-68
2022/12/23 06:29:41;;;;;;;21.43;12.43;;;9.10;99.90;;;;;;5096847;28;20200;-68
2022/12/23 06:32:07;;;;;;;26.10;13.83;;;9.00;99.90;;;;;;5096920;28;20201;-68
2022/12/23 06:34:33;;;;;;;34.43;15.63;;;9.00;99.90;;;;;;5097398;28;20192;-68
2022/12/23 06:36:59;;;;;;;28.77;14.77;;;9.00;99.90;;;;;;5078485;28;20254;-68
2022/12/23 06:39:25;;;;;;;28.63;15.33;;;9.00;99.90;;;;;;5078281;28;20205;-68
2022/12/23 06:41:51;;;;;;;33.20;15.17;;;9.00;99.90;;;;;;5096559;28;20174;-68
2022/12/23 06:44:17;;;;;;;29.43;15.60;;;9.00;99.90;;;;;;5096926;28;20193;-68
2022/12/23 06:46:43;;;;;;;32.30;15.63;;;9.00;99.90;;;;;;5096801;28;20161;-69
2022/12/23 06:49:09;;;;;;;29.47;15.33;;;9.00;99.90;;;;;;5078517;28;20698;-69
2022/12/23 06:51:34;;;;;;;31.40;15.47;;;9.00;99.90;;;;;;5078543;28;20176;-68
2022/12/23 06:54:00;;;;;;;36.20;15.17;;;9.00;99.90;;;;;;5096310;28;20564;-68
2022/12/23 06:56:26;;;;;;;36.17;16.40;;;9.00;99.90;;;;;;5078438;28;20569;-69
2022/12/23 06:58:52;;;;;;;27.57;15.30;;;9.00;99.90;;;;;;5097151;28;20189;-69
2022/12/23 07:01:21;;;;;;;36.40;17.37;;;9.00;99.90;;;;;;5096497;28;20157;-69
2022/12/23 07:03:48;;;;;;;30.70;16.27;;;9.00;99.90;;;;;;5078108;28;20197;-69
2022/12/23 07:06:14;;;;;;;35.83;16.73;;;9.00;99.90;;;;;;5096002;28;20211;-68
2022/12/23 07:08:40;;;;;;;35.47;16.27;;;9.10;99.90;;;;;;5095778;28;20181;-68
2022/12/23 07:11:05;;;;;;;36.63;17.87;;;9.00;99.90;;;;;;5095678;28;20193;-68
2022/12/23 07:13:32;;;;;;;39.50;17.40;;;9.00;99.90;;;;;;5096050;28;20204;-68
2022/12/23 07:15:58;;;;;;;43.70;19.47;;;9.00;99.90;;;;;;5096036;28;20198;-68
2022/12/23 07:18:24;;;;;;;47.97;19.40;;;9.00;99.90;;;;;;5095911;28;20173;-68
2022/12/23 07:20:51;;;;;;;39.93;18.37;;;9.00;99.90;;;;;;5095978;28;20173;-69
2022/12/23 07:23:17;;;;;;;53.80;20.97;;;9.00;99.90;;;;;;5078341;28;20181;-68
2022/12/23 07:25:43;;;;;;;42.37;19.67;;;9.00;99.90;;;;;;5096150;28;20513;-68
2022/12/23 07:28:09;;;;;;;48.80;20.83;;;9.00;99.90;;;;;;5095669;28;20184;-68
2022/12/23 07:30:35;;;;;;;51.10;22.00;;;9.00;99.90;;;;;;5096501;28;20169;-68
2022/12/23 07:33:01;;;;;;;51.10;21.37;;;9.00;99.90;;;;;;5095577;28;20196;-68
2022/12/23 07:35:27;;;;;;;51.30;20.03;;;9.00;99.90;;;;;;5095611;28;20539;-68
2022/12/23 07:37:54;;;;;;;48.70;21.13;;;9.00;99.90;;;;;;5095549;28;20234;-68
2022/12/23 07:40:21;;;;;;;45.63;18.70;;;9.00;99.90;;;;;;5077211;28;20209;-68
2022/12/23 07:42:54;;;;;;;49.00;20.67;;;9.00;99.90;;;;;;5095568;28;20169;-68
2022/12/23 07:45:20;;;;;;;46.80;20.77;;;9.00;99.90;;;;;;5077450;28;20197;-69
2022/12/23 07:47:46;;;;;;;48.90;19.90;;;9.00;99.90;;;;;;5095795;28;20184;-69
2022/12/23 07:50:12;;;;;;;44.83;20.27;;;8.90;99.90;;;;;;5076973;28;20184;-69
2022/12/23 07:52:38;;;;;;;49.33;19.70;;;8.90;99.90;;;;;;5095733;28;20180;-69
2022/12/23 07:55:05;;;;;;;47.87;21.73;;;8.90;99.90;;;;;;5077150;28;20200;-69
2022/12/23 07:57:36;;;;;;;54.97;21.67;;;8.90;99.90;;;;;;5095335;28;20173;-69
2022/12/23 08:00:08;;;;;;;48.63;21.30;;;8.90;99.90;;;;;;5095970;28;20192;-69
2022/12/23 08:02:34;;;;;;;51.27;22.70;;;8.90;99.90;;;;;;5076945;28;20173;-69
2022/12/23 08:05:00;;;;;;;50.00;22.43;;;8.90;99.90;;;;;;5095090;28;20193;-69
2022/12/23 08:07:25;;;;;;;54.07;22.03;;;8.90;99.90;;;;;;5076971;28;20169;-69
2022/12/23 08:09:51;;;;;;;51.33;22.13;;;8.90;99.90;;;;;;5077185;28;20177;-69
2022/12/23 08:12:17;;;;;;;53.67;21.93;;;8.90;99.90;;;;;;5094879;28;20185;-69
2022/12/23 08:14:43;;;;;;;52.93;21.90;;;8.90;99.90;;;;;;5095307;28;20189;-69
2022/12/23 08:17:08;;;;;;;48.63;20.80;;;8.90;99.90;;;;;;5095031;28;20222;-69
2022/12/23 08:19:34;;;;;;;49.50;20.60;;;8.90;99.90;;;;;;5076724;28;20212;-69
2022/12/23 08:22:00;;;;;;;52.03;21.53;;;8.80;99.90;;;;;;5075682;28;20180;-69
2022/12/23 08:24:26;;;;;;;49.90;21.13;;;8.80;99.90;;;;;;5094719;28;20200;-69
2022/12/23 08:26:52;;;;;;;54.13;22.53;;;8.90;99.90;;;;;;5095399;28;20185;-69
2022/12/23 08:29:17;;;;;;;54.33;22.97;;;8.80;99.90;;;;;;5095493;28;20521;-69
2022/12/23 08:31:43;;;;;;;62.73;24.57;;;8.80;99.90;;;;;;5076065;28;20181;-69
2022/12/23 08:34:09;;;;;;;57.33;23.03;;;8.80;99.90;;;;;;5094831;28;20197;-69
2022/12/23 08:36:35;;;;;;;52.07;21.47;;;8.80;99.90;;;;;;5076604;28;20184;-69
2022/12/23 08:39:05;;;;;;;60.63;22.83;;;8.80;99.90;;;;;;5094656;28;20266;-69
2022/12/23 08:41:34;;;;;;;46.43;22.20;;;8.80;99.90;;;;;;5094527;28;20638;-69
2022/12/23 08:44:00;;;;;;;59.47;25.33;;;8.90;99.90;;;;;;5076027;28;20200;-69
2022/12/23 08:46:26;;;;;;;52.57;23.27;;;8.90;99.90;;;;;;5094374;28;20652;-69
2022/12/23 08:48:53;;;;;;;50.27;21.60;;;8.90;99.90;;;;;;5076267;28;20177;-69
2022/12/23 08:51:20;;;;;;;54.13;22.87;;;8.80;99.90;;;;;;5076253;28;20181;-69
2022/12/23 08:53:47;;;;;;;53.10;23.57;;;8.80;99.90;;;;;;5094449;28;20209;-69
2022/12/23 08:56:18;;;;;;;56.93;23.10;;;8.80;99.90;;;;;;5094365;28;20177;-69
2022/12/23 08:58:46;;;;;;;45.97;21.43;;;8.90;99.90;;;;;;5094207;28;20189;-69
2022/12/23 09:01:14;;;;;;;44.13;21.37;;;8.90;99.90;;;;;;5094417;28;20211;-69
2022/12/23 09:03:42;;;;;;;53.23;21.43;;;8.90;99.90;;;;;;5094076;28;20211;-69
2022/12/23 09:06:13;;;;;;;45.00;20.27;;;8.90;99.90;;;;;;5076022;28;20173;-69
2022/12/23 09:08:40;;;;;;;47.73;20.37;;;8.90;99.90;;;;;;5093937;28;20168;-69
2022/12/23 09:11:14;;;;;;;48.10;22.20;;;8.90;99.90;;;;;;5075886;28;20208;-69
2022/12/23 09:13:40;;;;;;;48.20;20.60;;;8.90;99.90;;;;;;5094408;28;20573;-69
2022/12/23 09:16:06;;;;;;;50.53;22.43;;;8.90;99.90;;;;;;5094202;28;20169;-69
2022/12/23 09:18:33;;;;;;;50.63;22.83;;;8.90;99.90;;;;;;5075938;28;20176;-69
2022/12/23 09:21:04;;;;;;;48.73;21.57;;;9.00;99.90;;;;;;5093836;28;20164;-69
2022/12/23 09:23:30;;;;;;;43.60;21.97;;;9.00;99.90;;;;;;5093895;28;20160;-69
2022/12/23 09:25:56;;;;;;;49.13;22.00;;;9.00;99.90;;;;;;5093926;28;20173;-69
2022/12/23 09:28:23;;;;;;;48.53;21.23;;;9.00;99.90;;;;;;5093609;28;20184;-69
2022/12/23 09:30:48;;;;;;;48.30;22.03;;;9.00;99.90;;;;;;5075712;28;20172;-69
2022/12/23 09:33:14;;;;;;;43.40;22.23;;;9.00;99.90;;;;;;5075176;28;20173;-69
2022/12/23 09:35:40;;;;;;;45.63;22.53;;;8.90;99.90;;;;;;5094208;28;20163;-69
2022/12/23 09:38:06;;;;;;;56.63;21.57;;;8.90;99.90;;;;;;5075826;28;20200;-69
2022/12/23 09:40:34;;;;;;;45.10;21.20;;;8.90;99.90;;;;;;5075679;28;20653;-70
2022/12/23 09:43:18;;;;;;;44.63;21.47;;;8.90;99.90;;;;;;5075635;28;20272;-69
2022/12/23 09:45:59;;;;;;;53.80;22.30;;;8.90;99.90;;;;;;5093977;28;20161;-69
2022/12/23 09:48:34;;;;;;;51.00;22.00;;;9.00;99.90;;;;;;5075517;28;20169;-70
2022/12/23 09:51:02;;;;;;;43.43;20.70;;;8.90;99.90;;;;;;5075511;28;20164;-70
2022/12/23 09:54:12;;;;;;;49.73;21.47;;;8.90;99.90;;;;;;5075767;28;20212;-69
2022/12/23 09:56:47;;;;;;;39.93;21.23;;;8.90;99.90;;;;;;5094017;28;20687;-69
2022/12/23 09:59:38;;;;;;;45.17;19.90;;;9.00;99.90;;;;;;5075170;28;20223;-69
2022/12/23 10:02:13;;;;;;;49.90;21.97;;;9.00;99.90;;;;;;5093458;28;20154;-69
2022/12/23 10:04:58;;;;;;;37.10;18.53;;;9.00;99.90;;;;;;5075905;28;20334;-69
2022/12/23 10:07:38;;;;;;;45.03;19.17;;;9.00;99.90;;;;;;5075237;28;20173;-69
2022/12/23 10:10:26;;;;;;;42.03;19.27;;;9.00;99.90;;;;;;5075113;28;20649;-69
2022/12/23 10:12:53;;;;;;;40.23;18.83;;;9.00;99.90;;;;;;5073864;28;20190;-69
2022/12/23 10:15:28;;;;;;;42.87;19.80;;;9.00;99.90;;;;;;5073420;28;20276;-68
2022/12/23 10:18:07;;;;;;;43.53;18.10;;;9.00;99.90;;;;;;5072687;28;20166;-67
2022/12/23 10:20:47;;;;;;;38.90;18.70;;;9.00;99.90;;;;;;5055110;28;20197;-67
2022/12/23 10:23:23;;;;;;;44.83;19.60;;;9.00;99.90;;;;;;5073693;28;20629;-70
2022/12/23 10:25:51;;;;;;;40.10;19.43;;;9.00;99.90;;;;;;5073141;28;20169;-69
2022/12/23 10:28:17;;;;;;;40.30;19.17;;;9.00;99.90;;;;;;5054917;28;20216;-69
2022/12/23 10:30:51;;;;;;;43.77;20.07;;;9.10;99.90;;;;;;5072713;28;20177;-69
2022/12/23 10:33:33;;;;;;;43.37;20.20;;;9.10;99.90;;;;;;5072777;28;20171;-69
2022/12/23 10:36:40;;;;;;;37.13;19.70;;;9.10;99.90;;;;;;5072849;28;20169;-69
2022/12/23 10:39:48;;;;;;;33.93;17.13;;;9.10;99.90;;;;;;5073753;28;20189;-73
2022/12/23 10:42:40;;;;;;;30.70;15.97;;;9.10;99.90;;;;;;5070683;28;20214;-69
2022/12/23 10:45:20;;;;;;;28.73;16.40;;;9.10;99.90;;;;;;5076244;28;20193;-70
2022/12/23 10:48:15;;;;;;;34.43;16.43;;;9.10;99.90;;;;;;5078580;28;20166;-72
2022/12/23 10:50:54;;;;;;;35.60;17.33;;;9.20;99.90;;;;;;5082670;28;20212;-69
2022/12/23 10:53:33;;;;;;;26.50;15.37;;;9.10;99.90;;;;;;5096509;28;20169;-70
2022/12/23 10:56:01;;;;;;;31.23;15.30;;;9.10;99.90;;;;;;5078409;28;20253;-70
2022/12/23 10:58:28;;;;;;;33.23;15.60;;;9.10;99.90;;;;;;5078550;28;20177;-66
2022/12/23 11:00:58;;;;;;;26.40;15.13;;;9.10;99.90;;;;;;5096049;28;20161;-67
2022/12/23 11:03:41;;;;;;;23.00;13.70;;;9.20;99.90;;;;;;5077575;28;20201;-67
2022/12/23 11:06:08;;;;;;;34.13;15.67;;;9.20;99.90;;;;;;5077966;28;20568;-67
2022/12/23 11:08:35;;;;;;;26.70;14.30;;;9.20;99.90;;;;;;5077751;28;20226;-67
2022/12/23 11:11:02;;;;;;;25.97;14.53;;;9.20;99.90;;;;;;5095711;28;20496;-67
2022/12/23 11:13:37;;;;;;;22.67;14.17;;;9.20;99.90;;;;;;5077595;28;20196;-67
2022/12/23 11:16:25;;;;;;;21.77;12.63;;;9.20;99.90;;;;;;5077694;28;20518;-68
2022/12/23 11:19:00;;;;;;;20.87;11.83;;;9.20;99.90;;;;;;5096187;28;20220;-68
2022/12/23 11:21:28;;;;;;;24.67;12.73;;;9.30;99.90;;;;;;5078431;28;20230;-68
2022/12/23 11:24:07;;;;;;;19.33;11.60;;;9.30;99.90;;;;;;5098562;28;20192;-68
2022/12/23 11:26:34;;;;;;;17.53;10.33;;;9.30;99.90;;;;;;5100963;28;20158;-69
2022/12/23 11:29:08;;;;;;;18.20;11.37;;;9.30;99.90;;;;;;5080742;28;20263;-68
2022/12/23 11:31:34;;;;;;;18.77;11.00;;;9.20;99.90;;;;;;5096683;28;20166;-68
2022/12/23 11:34:05;;;;;;;15.10;9.50;;;9.20;99.90;;;;;;5077643;28;20234;-68
2022/12/23 11:36:33;;;;;;;19.07;11.57;;;9.30;99.90;;;;;;5095871;28;20176;-67
2022/12/23 11:39:17;;;;;;;15.70;10.23;;;9.30;99.90;;;;;;5095440;28;20201;-67
2022/12/23 11:41:47;;;;;;;16.07;10.93;;;9.30;99.90;;;;;;5077024;28;20184;-68
2022/12/23 11:44:29;;;;;;;14.97;10.10;;;9.30;99.90;;;;;;5095384;28;20199;-68
2022/12/23 11:46:55;;;;;;;16.63;10.70;;;9.30;99.90;;;;;;5095680;28;20240;-68
2022/12/23 11:49:30;;;;;;;17.10;10.70;;;9.40;99.90;;;;;;5076968;28;20735;-68
2022/12/23 11:52:04;;;;;;;15.10;10.40;;;9.30;99.90;;;;;;5095440;28;20621;-68
2022/12/23 11:54:31;;;;;;;19.27;10.60;;;9.40;99.90;;;;;;5094992;28;20200;-68
2022/12/23 11:57:00;;;;;;;16.07;9.27;;;9.30;99.90;;;;;;5094885;28;20631;-68
2022/12/23 11:59:38;;;;;;;15.93;10.60;;;9.30;99.90;;;;;;5095462;28;20318;-68
2022/12/23 12:02:13;;;;;;;14.57;10.23;;;9.30;99.90;;;;;;5094943;28;20154;-68
2022/12/23 12:04:40;;;;;;;18.80;10.93;;;9.20;99.90;;;;;;5094848;28;20188;-68
2022/12/23 12:07:12;;;;;;;20.90;10.87;;;9.20;99.90;;;;;;5094829;28;20180;-68
2022/12/23 12:09:40;;;;;;;18.80;10.73;;;9.20;99.90;;;;;;5076729;28;20255;-68
2022/12/23 12:12:14;;;;;;;20.97;11.17;;;9.20;99.90;;;;;;5094975;28;20314;-68
2022/12/23 12:14:53;;;;;;;20.13;12.10;;;9.20;99.90;;;;;;5094991;28;20228;-68
2022/12/23 12:17:36;;;;;;;18.83;10.67;;;9.10;99.90;;;;;;5094931;28;20534;-68
2022/12/23 12:20:11;;;;;;;19.60;12.00;;;9.10;99.90;;;;;;5076504;28;20258;-68
2022/12/23 12:23:02;;;;;;;21.20;12.27;;;9.10;99.90;;;;;;5095318;28;20202;-70
2022/12/23 12:25:46;;;;;;;21.60;12.57;;;9.10;99.90;;;;;;5076388;28;20201;-69
2022/12/23 12:28:23;;;;;;;22.17;12.70;;;9.10;99.90;;;;;;5094615;28;20189;-69
2022/12/23 12:30:57;;;;;;;20.07;12.27;;;9.10;99.90;;;;;;5094611;28;20181;-69
2022/12/23 12:33:35;;;;;;;20.77;12.73;;;9.10;99.90;;;;;;5094344;28;20156;-70
2022/12/23 12:36:31;;;;;;;19.80;11.80;;;9.10;99.90;;;;;;5094483;28;20173;-70
2022/12/23 12:38:59;;;;;;;18.07;11.43;;;9.10;99.90;;;;;;5054903;28;20299;-70
2022/12/23 12:41:33;;;;;;;17.07;9.90;;;9.10;99.90;;;;;;5094421;28;20173;-70
2022/12/23 12:44:24;;;;;;;15.00;9.83;;;9.10;99.90;;;;;;5094598;28;20671;-70
2022/12/23 12:47:13;;;;;;;16.23;9.80;;;9.10;99.90;;;;;;5094130;28;20350;-70
2022/12/23 12:49:50;;;;;;;14.90;10.37;;;9.10;99.90;;;;;;5094552;28;20612;-70
2022/12/23 12:52:20;;;;;;;14.57;9.80;;;9.10;99.90;;;;;;5094903;28;20236;-70
2022/12/23 12:55:05;;;;;;;12.53;8.77;;;9.20;99.90;;;;;;5094095;28;20193;-70
2022/12/23 12:57:34;;;;;;;14.70;10.70;;;9.10;99.90;;;;;;5094413;28;20659;-70
2022/12/23 13:00:01;;;;;;;13.77;9.90;;;9.20;99.90;;;;;;5094383;28;20653;-70
2022/12/23 13:02:42;;;;;;;13.57;9.87;;;9.20;99.90;;;;;;5075834;28;20177;-70
2022/12/23 13:05:08;;;;;;;16.47;12.07;;;9.20;99.90;;;;;;5075966;28;20197;-67
2022/12/23 13:07:55;;;;;;;19.80;12.70;;;9.20;99.90;;;;;;5093338;28;20180;-69
2022/12/23 13:10:32;;;;;;;17.50;10.67;;;9.20;99.90;;;;;;5093925;28;20626;-70
2022/12/23 13:13:31;;;;;;;15.07;11.77;;;9.20;99.90;;;;;;5094537;28;20627;-69
2022/12/23 13:16:25;;;;;;;14.37;10.77;;;9.30;99.90;;;;;;5094051;28;20675;-69
2022/12/23 13:19:11;;;;;;;12.32;9.38;;;9.30;99.90;;;;;;5075423;28;20262;-70
2022/12/23 13:21:44;;;;;;;17.33;12.03;;;9.30;99.90;;;;;;5093764;28;20173;-70
2022/12/23 13:24:27;;;;;;;15.53;11.33;;;9.30;99.90;;;;;;5093672;28;20189;-70
2022/12/23 13:27:05;;;;;;;19.17;13.50;;;9.30;99.90;;;;;;5093416;28;20177;-70
2022/12/23 13:29:56;;;;;;;21.70;15.07;;;9.30;99.90;;;;;;5093562;28;20157;-70